Etusivu
METAR-TAF:

METAR-TAF

Lentoasemat :

Bodrum, Turkki

Leveyspiiri: 37-14-53N, Pituuspiiri: 027-40-55E, korkeus merenpinnasta: 6 m

Tämänhetkinen sää

Tämä raportti tehtiin 31 minuuttia sitten, kello 13.50 UTC
Tuuli 13 kn lännestä/lounaasta
Lämpötila 32°C
Kosteus 43%
Ilmanpaine 1003 hPa
Näkyvyys 10 km tai enemmän
ei pilviä alle 1500 m:ssä eikä cumulonimbus-pilviä

METAR: LTFE 231350Z 25013KT CAVOK 32/18 Q1003 NOSIG RMK RWY10 24014KT

Aika: 17:21 (14:21 UTC)

Sääennuste

Tämä raportti tehtiin 3 tuntia ja 41 minuuttia sitten, kello 10.40 UTC
Ennuste voimassa 23. päivästä klo 12 UTC - 24. päivään klo 12 UTC
Tuuli 15 kn lännestä
Näkyvyys 10 km tai enemmän
ei pilviä alle 1500 m:ssä eikä cumulonimbus-pilviä
Tulossa
23. päivästä klo 15 UTC - 23. päivään klo 18 UTC
Tuuli 2 kn eri suunnista
Tulossa
24. päivästä klo 08 UTC - 24. päivään klo 10 UTC
Tuuli 15 kn lännestä

TAF: LTFE 231040Z 2312/2412 26015KT CAVOK BECMG 2315/2318 VRB02KT BECMG 2408/2410 26015KT

Säähavainnot ja -ennusteet yli 4000 lentoasemalta (METAR- ja TAF-raportit).

Käytössä olevat sääasemat on merkitty karttaan keltaisilla ja punaisilla pisteillä.

Aseta hiiri pisteen päälle nähdäksesi sääaseman nimen.

Klikkaa sitten nähdäksesi säähavainnot ja -ennusteet.

Kartan vaihtaminen: klikkaa mustalla rastilla varustettuja vihreitä pisteitä, niin voit zoomata sisään; viivalla varustettua vihreää pistettä, niin voit zoomata ulos tai vihreitä nuolia, niin pääset viereisille kartoille.


METAR-TAF: